sensor_id;sensor_type;location;lat;lon;timestamp;P1;durP1;ratioP1;P2;durP2;ratioP2
9256;SDS011;4665;51.368;6.782;2022-10-15T00:00:37;9.03;;;7.70;;
9256;SDS011;4665;51.368;6.782;2022-10-15T00:03:03;7.00;;;6.30;;
9256;SDS011;4665;51.368;6.782;2022-10-15T00:05:29;9.57;;;7.23;;
9256;SDS011;4665;51.368;6.782;2022-10-15T00:07:54;7.77;;;6.97;;
9256;SDS011;4665;51.368;6.782;2022-10-15T00:10:20;6.67;;;5.80;;
9256;SDS011;4665;51.368;6.782;2022-10-15T00:12:46;7.23;;;6.63;;
9256;SDS011;4665;51.368;6.782;2022-10-15T00:15:12;7.73;;;7.03;;
9256;SDS011;4665;51.368;6.782;2022-10-15T00:17:37;7.97;;;7.27;;
9256;SDS011;4665;51.368;6.782;2022-10-15T00:20:04;8.37;;;7.53;;
9256;SDS011;4665;51.368;6.782;2022-10-15T00:22:31;9.03;;;8.17;;
9256;SDS011;4665;51.368;6.782;2022-10-15T00:24:57;9.17;;;8.37;;
9256;SDS011;4665;51.368;6.782;2022-10-15T00:27:22;12.97;;;10.10;;
9256;SDS011;4665;51.368;6.782;2022-10-15T00:29:48;8.53;;;7.73;;
9256;SDS011;4665;51.368;6.782;2022-10-15T00:32:13;8.67;;;7.77;;
9256;SDS011;4665;51.368;6.782;2022-10-15T00:34:39;8.23;;;7.43;;
9256;SDS011;4665;51.368;6.782;2022-10-15T00:37:05;8.57;;;7.87;;
9256;SDS011;4665;51.368;6.782;2022-10-15T00:39:30;10.17;;;9.17;;
9256;SDS011;4665;51.368;6.782;2022-10-15T00:41:56;8.40;;;7.20;;
9256;SDS011;4665;51.368;6.782;2022-10-15T00:46:53;8.23;;;7.50;;
9256;SDS011;4665;51.368;6.782;2022-10-15T00:49:45;9.07;;;8.27;;
9256;SDS011;4665;51.368;6.782;2022-10-15T00:52:18;9.30;;;8.37;;
9256;SDS011;4665;51.368;6.782;2022-10-15T00:55:05;8.03;;;7.33;;
9256;SDS011;4665;51.368;6.782;2022-10-15T00:57:34;8.13;;;7.30;;
9256;SDS011;4665;51.368;6.782;2022-10-15T01:00:01;8.90;;;8.07;;
9256;SDS011;4665;51.368;6.782;2022-10-15T01:02:30;7.73;;;7.03;;
9256;SDS011;4665;51.368;6.782;2022-10-15T01:04:55;8.43;;;7.23;;
9256;SDS011;4665;51.368;6.782;2022-10-15T01:07:21;10.20;;;8.10;;
9256;SDS011;4665;51.368;6.782;2022-10-15T01:09:46;7.87;;;7.17;;
9256;SDS011;4665;51.368;6.782;2022-10-15T01:12:18;6.93;;;6.33;;
9256;SDS011;4665;51.368;6.782;2022-10-15T01:14:49;8.40;;;7.70;;
9256;SDS011;4665;51.368;6.782;2022-10-15T01:17:27;7.67;;;6.97;;
9256;SDS011;4665;51.368;6.782;2022-10-15T01:31:20;8.50;;;7.17;;
9256;SDS011;4665;51.368;6.782;2022-10-15T01:33:57;7.10;;;6.40;;
9256;SDS011;4665;51.368;6.782;2022-10-15T01:36:27;6.47;;;5.93;;
9256;SDS011;4665;51.368;6.782;2022-10-15T01:39:11;7.13;;;6.57;;
9256;SDS011;4665;51.368;6.782;2022-10-15T01:41:48;6.70;;;6.10;;
9256;SDS011;4665;51.368;6.782;2022-10-15T01:44:38;7.10;;;6.50;;
9256;SDS011;4665;51.368;6.782;2022-10-15T01:47:07;7.77;;;7.17;;
9256;SDS011;4665;51.368;6.782;2022-10-15T01:49:39;8.90;;;7.03;;
9256;SDS011;4665;51.368;6.782;2022-10-15T01:52:09;7.00;;;6.33;;
9256;SDS011;4665;51.368;6.782;2022-10-15T01:54:40;8.17;;;7.37;;
9256;SDS011;4665;51.368;6.782;2022-10-15T01:57:07;10.60;;;6.83;;
9256;SDS011;4665;51.368;6.782;2022-10-15T01:59:35;7.83;;;7.17;;
9256;SDS011;4665;51.368;6.782;2022-10-15T02:02:01;7.57;;;6.87;;
9256;SDS011;4665;51.368;6.782;2022-10-15T02:04:27;8.43;;;7.70;;
9256;SDS011;4665;51.368;6.782;2022-10-15T02:09:58;7.53;;;6.47;;
9256;SDS011;4665;51.368;6.782;2022-10-15T02:12:30;8.03;;;7.33;;
9256;SDS011;4665;51.368;6.782;2022-10-15T02:15:16;8.93;;;6.83;;
9256;SDS011;4665;51.368;6.782;2022-10-15T02:20:23;7.80;;;7.10;;
9256;SDS011;4665;51.368;6.782;2022-10-15T02:23:07;7.70;;;6.90;;
9256;SDS011;4665;51.368;6.782;2022-10-15T02:25:41;7.60;;;7.00;;
9256;SDS011;4665;51.368;6.782;2022-10-15T02:28:07;8.03;;;7.27;;
9256;SDS011;4665;51.368;6.782;2022-10-15T02:30:36;7.37;;;6.77;;
9256;SDS011;4665;51.368;6.782;2022-10-15T02:33:06;7.83;;;7.03;;
9256;SDS011;4665;51.368;6.782;2022-10-15T02:35:32;11.00;;;9.17;;
9256;SDS011;4665;51.368;6.782;2022-10-15T02:38:01;10.50;;;8.07;;
9256;SDS011;4665;51.368;6.782;2022-10-15T02:40:30;9.97;;;9.07;;
9256;SDS011;4665;51.368;6.782;2022-10-15T02:42:58;10.63;;;9.63;;
9256;SDS011;4665;51.368;6.782;2022-10-15T02:45:23;10.10;;;9.20;;
9256;SDS011;4665;51.368;6.782;2022-10-15T02:47:49;10.13;;;9.10;;
9256;SDS011;4665;51.368;6.782;2022-10-15T02:50:14;10.30;;;9.33;;
9256;SDS011;4665;51.368;6.782;2022-10-15T02:52:40;9.60;;;8.80;;
9256;SDS011;4665;51.368;6.782;2022-10-15T02:55:05;11.00;;;9.90;;
9256;SDS011;4665;51.368;6.782;2022-10-15T02:57:31;9.30;;;8.50;;
9256;SDS011;4665;51.368;6.782;2022-10-15T02:59:56;9.23;;;8.40;;
9256;SDS011;4665;51.368;6.782;2022-10-15T03:02:21;9.57;;;8.70;;
9256;SDS011;4665;51.368;6.782;2022-10-15T03:04:47;9.70;;;8.80;;
9256;SDS011;4665;51.368;6.782;2022-10-15T03:07:12;9.77;;;8.87;;
9256;SDS011;4665;51.368;6.782;2022-10-15T03:09:38;10.27;;;9.33;;
9256;SDS011;4665;51.368;6.782;2022-10-15T03:12:03;10.80;;;9.80;;
9256;SDS011;4665;51.368;6.782;2022-10-15T03:14:29;10.80;;;9.90;;
9256;SDS011;4665;51.368;6.782;2022-10-15T03:16:55;14.90;;;10.57;;
9256;SDS011;4665;51.368;6.782;2022-10-15T03:19:20;10.57;;;9.67;;
9256;SDS011;4665;51.368;6.782;2022-10-15T03:21:46;11.23;;;10.13;;
9256;SDS011;4665;51.368;6.782;2022-10-15T03:24:11;11.17;;;10.07;;
9256;SDS011;4665;51.368;6.782;2022-10-15T03:26:36;11.57;;;10.37;;
9256;SDS011;4665;51.368;6.782;2022-10-15T03:29:02;10.83;;;9.93;;
9256;SDS011;4665;51.368;6.782;2022-10-15T03:31:28;11.07;;;9.97;;
9256;SDS011;4665;51.368;6.782;2022-10-15T03:33:53;10.43;;;9.30;;
9256;SDS011;4665;51.368;6.782;2022-10-15T03:36:18;11.13;;;10.13;;
9256;SDS011;4665;51.368;6.782;2022-10-15T03:38:44;11.47;;;10.37;;
9256;SDS011;4665;51.368;6.782;2022-10-15T03:41:09;11.03;;;9.93;;
9256;SDS011;4665;51.368;6.782;2022-10-15T03:43:35;11.00;;;9.97;;
9256;SDS011;4665;51.368;6.782;2022-10-15T03:46:04;11.83;;;10.00;;
9256;SDS011;4665;51.368;6.782;2022-10-15T03:48:29;10.63;;;9.63;;
9256;SDS011;4665;51.368;6.782;2022-10-15T03:50:55;11.30;;;10.10;;
9256;SDS011;4665;51.368;6.782;2022-10-15T03:53:21;11.00;;;10.00;;
9256;SDS011;4665;51.368;6.782;2022-10-15T03:55:47;10.80;;;9.80;;
9256;SDS011;4665;51.368;6.782;2022-10-15T03:58:12;11.03;;;9.93;;
9256;SDS011;4665;51.368;6.782;2022-10-15T04:00:42;11.87;;;10.67;;
9256;SDS011;4665;51.368;6.782;2022-10-15T04:03:08;11.10;;;10.03;;
9256;SDS011;4665;51.368;6.782;2022-10-15T04:05:34;13.87;;;12.50;;
9256;SDS011;4665;51.368;6.782;2022-10-15T04:08:00;11.70;;;10.60;;
9256;SDS011;4665;51.368;6.782;2022-10-15T04:10:25;12.03;;;10.83;;
9256;SDS011;4665;51.368;6.782;2022-10-15T04:12:51;11.17;;;10.07;;
9256;SDS011;4665;51.368;6.782;2022-10-15T04:15:16;11.63;;;10.63;;
9256;SDS011;4665;51.368;6.782;2022-10-15T04:17:42;14.00;;;12.60;;
9256;SDS011;4665;51.368;6.782;2022-10-15T04:20:07;12.13;;;10.93;;
9256;SDS011;4665;51.368;6.782;2022-10-15T04:22:35;13.90;;;12.50;;
9256;SDS011;4665;51.368;6.782;2022-10-15T04:25:01;13.00;;;11.67;;
9256;SDS011;4665;51.368;6.782;2022-10-15T04:27:26;14.00;;;12.57;;
9256;SDS011;4665;51.368;6.782;2022-10-15T04:29:51;14.03;;;12.63;;
9256;SDS011;4665;51.368;6.782;2022-10-15T04:32:17;14.73;;;13.20;;
9256;SDS011;4665;51.368;6.782;2022-10-15T04:34:42;14.47;;;12.97;;
9256;SDS011;4665;51.368;6.782;2022-10-15T04:37:10;14.93;;;13.03;;
9256;SDS011;4665;51.368;6.782;2022-10-15T04:39:35;14.73;;;13.10;;
9256;SDS011;4665;51.368;6.782;2022-10-15T04:42:01;14.47;;;12.93;;
9256;SDS011;4665;51.368;6.782;2022-10-15T04:44:26;14.57;;;12.73;;
9256;SDS011;4665;51.368;6.782;2022-10-15T04:46:51;16.63;;;13.60;;
9256;SDS011;4665;51.368;6.782;2022-10-15T04:49:17;18.23;;;14.43;;
9256;SDS011;4665;51.368;6.782;2022-10-15T04:51:43;17.57;;;15.60;;
9256;SDS011;4665;51.368;6.782;2022-10-15T04:54:08;16.10;;;13.60;;
9256;SDS011;4665;51.368;6.782;2022-10-15T04:56:37;17.00;;;15.23;;
9256;SDS011;4665;51.368;6.782;2022-10-15T04:59:05;16.57;;;14.77;;
9256;SDS011;4665;51.368;6.782;2022-10-15T05:01:31;16.40;;;14.50;;
9256;SDS011;4665;51.368;6.782;2022-10-15T05:03:56;16.10;;;14.40;;
9256;SDS011;4665;51.368;6.782;2022-10-15T05:06:22;17.40;;;14.53;;
9256;SDS011;4665;51.368;6.782;2022-10-15T05:08:47;15.80;;;13.63;;
9256;SDS011;4665;51.368;6.782;2022-10-15T05:11:24;17.90;;;13.17;;
9256;SDS011;4665;51.368;6.782;2022-10-15T05:13:51;14.57;;;13.07;;
9256;SDS011;4665;51.368;6.782;2022-10-15T05:16:19;14.67;;;13.17;;
9256;SDS011;4665;51.368;6.782;2022-10-15T05:18:46;13.53;;;12.23;;
9256;SDS011;4665;51.368;6.782;2022-10-15T05:21:13;14.57;;;13.00;;
9256;SDS011;4665;51.368;6.782;2022-10-15T05:23:39;14.03;;;12.40;;
9256;SDS011;4665;51.368;6.782;2022-10-15T05:26:07;13.73;;;12.33;;
9256;SDS011;4665;51.368;6.782;2022-10-15T05:28:36;12.83;;;11.53;;
9256;SDS011;4665;51.368;6.782;2022-10-15T05:33:31;14.80;;;12.93;;
9256;SDS011;4665;51.368;6.782;2022-10-15T05:36:06;13.00;;;11.80;;
9256;SDS011;4665;51.368;6.782;2022-10-15T05:38:32;12.63;;;11.33;;
9256;SDS011;4665;51.368;6.782;2022-10-15T05:40:57;11.87;;;10.67;;
9256;SDS011;4665;51.368;6.782;2022-10-15T05:43:23;14.00;;;12.60;;
9256;SDS011;4665;51.368;6.782;2022-10-15T05:45:52;11.97;;;10.93;;
9256;SDS011;4665;51.368;6.782;2022-10-15T05:48:18;13.60;;;12.20;;
9256;SDS011;4665;51.368;6.782;2022-10-15T05:50:43;12.70;;;11.40;;
9256;SDS011;4665;51.368;6.782;2022-10-15T05:53:09;11.70;;;10.50;;
9256;SDS011;4665;51.368;6.782;2022-10-15T05:55:34;13.37;;;12.00;;
9256;SDS011;4665;51.368;6.782;2022-10-15T05:58:00;12.83;;;11.37;;
9256;SDS011;4665;51.368;6.782;2022-10-15T06:00:27;16.83;;;12.27;;
9256;SDS011;4665;51.368;6.782;2022-10-15T06:02:52;14.37;;;12.63;;
9256;SDS011;4665;51.368;6.782;2022-10-15T06:05:18;15.23;;;12.70;;
9256;SDS011;4665;51.368;6.782;2022-10-15T06:07:43;14.47;;;12.97;;
9256;SDS011;4665;51.368;6.782;2022-10-15T06:10:08;14.00;;;11.90;;
9256;SDS011;4665;51.368;6.782;2022-10-15T06:12:37;17.27;;;13.23;;
9256;SDS011;4665;51.368;6.782;2022-10-15T06:15:03;14.57;;;12.70;;
9256;SDS011;4665;51.368;6.782;2022-10-15T06:17:29;14.07;;;12.57;;
9256;SDS011;4665;51.368;6.782;2022-10-15T06:19:55;16.93;;;14.00;;
9256;SDS011;4665;51.368;6.782;2022-10-15T06:22:20;17.37;;;13.07;;
9256;SDS011;4665;51.368;6.782;2022-10-15T06:24:46;17.53;;;12.57;;
9256;SDS011;4665;51.368;6.782;2022-10-15T06:27:11;14.47;;;12.57;;
9256;SDS011;4665;51.368;6.782;2022-10-15T06:29:40;17.57;;;13.37;;
9256;SDS011;4665;51.368;6.782;2022-10-15T06:32:09;15.77;;;14.00;;
9256;SDS011;4665;51.368;6.782;2022-10-15T06:34:35;18.20;;;14.80;;
9256;SDS011;4665;51.368;6.782;2022-10-15T06:37:01;14.97;;;13.17;;
9256;SDS011;4665;51.368;6.782;2022-10-15T06:39:26;18.37;;;13.90;;
9256;SDS011;4665;51.368;6.782;2022-10-15T06:41:51;19.03;;;14.53;;
9256;SDS011;4665;51.368;6.782;2022-10-15T06:44:17;17.47;;;14.67;;
9256;SDS011;4665;51.368;6.782;2022-10-15T06:46:42;15.50;;;13.60;;
9256;SDS011;4665;51.368;6.782;2022-10-15T06:49:08;20.13;;;14.47;;
9256;SDS011;4665;51.368;6.782;2022-10-15T06:51:33;16.97;;;15.17;;
9256;SDS011;4665;51.368;6.782;2022-10-15T06:53:58;20.37;;;16.83;;
9256;SDS011;4665;51.368;6.782;2022-10-15T06:56:24;21.37;;;16.70;;
9256;SDS011;4665;51.368;6.782;2022-10-15T06:58:49;20.40;;;16.43;;
9256;SDS011;4665;51.368;6.782;2022-10-15T07:01:15;18.83;;;15.30;;
9256;SDS011;4665;51.368;6.782;2022-10-15T07:03:41;19.47;;;16.17;;
9256;SDS011;4665;51.368;6.782;2022-10-15T07:06:07;20.33;;;15.33;;
9256;SDS011;4665;51.368;6.782;2022-10-15T07:08:36;23.10;;;16.57;;
9256;SDS011;4665;51.368;6.782;2022-10-15T07:11:02;22.73;;;17.87;;
9256;SDS011;4665;51.368;6.782;2022-10-15T07:13:29;23.80;;;17.43;;
9256;SDS011;4665;51.368;6.782;2022-10-15T07:15:55;22.20;;;17.10;;
9256;SDS011;4665;51.368;6.782;2022-10-15T07:18:20;21.17;;;16.27;;
9256;SDS011;4665;51.368;6.782;2022-10-15T07:20:46;19.70;;;16.53;;
9256;SDS011;4665;51.368;6.782;2022-10-15T07:23:12;19.03;;;16.77;;
9256;SDS011;4665;51.368;6.782;2022-10-15T07:25:37;21.17;;;16.07;;
9256;SDS011;4665;51.368;6.782;2022-10-15T07:28:03;22.17;;;15.57;;
9256;SDS011;4665;51.368;6.782;2022-10-15T07:30:29;21.67;;;17.43;;
9256;SDS011;4665;51.368;6.782;2022-10-15T07:32:55;21.63;;;18.03;;
9256;SDS011;4665;51.368;6.782;2022-10-15T07:35:22;22.53;;;17.47;;
9256;SDS011;4665;51.368;6.782;2022-10-15T07:37:47;22.40;;;17.27;;
9256;SDS011;4665;51.368;6.782;2022-10-15T07:40:14;21.87;;;16.77;;
9256;SDS011;4665;51.368;6.782;2022-10-15T07:42:40;23.53;;;17.87;;
9256;SDS011;4665;51.368;6.782;2022-10-15T07:45:08;23.37;;;18.67;;
9256;SDS011;4665;51.368;6.782;2022-10-15T07:47:49;24.57;;;18.07;;
9256;SDS011;4665;51.368;6.782;2022-10-15T07:50:18;23.77;;;18.20;;
9256;SDS011;4665;51.368;6.782;2022-10-15T07:52:52;24.73;;;18.40;;
9256;SDS011;4665;51.368;6.782;2022-10-15T07:55:18;26.77;;;19.40;;
9256;SDS011;4665;51.368;6.782;2022-10-15T07:57:48;25.67;;;20.00;;
9256;SDS011;4665;51.368;6.782;2022-10-15T08:00:14;27.27;;;19.17;;
9256;SDS011;4665;51.368;6.782;2022-10-15T08:02:40;25.47;;;20.30;;
9256;SDS011;4665;51.368;6.782;2022-10-15T08:05:05;28.23;;;20.73;;
9256;SDS011;4665;51.368;6.782;2022-10-15T08:07:34;24.97;;;20.10;;
9256;SDS011;4665;51.368;6.782;2022-10-15T08:10:00;26.73;;;19.97;;
9256;SDS011;4665;51.368;6.782;2022-10-15T08:12:25;23.90;;;18.20;;
9256;SDS011;4665;51.368;6.782;2022-10-15T08:14:51;26.63;;;19.40;;
9256;SDS011;4665;51.368;6.782;2022-10-15T08:17:16;25.50;;;19.43;;
9256;SDS011;4665;51.368;6.782;2022-10-15T08:19:42;22.33;;;17.70;;
9256;SDS011;4665;51.368;6.782;2022-10-15T08:22:07;23.07;;;17.07;;
9256;SDS011;4665;51.368;6.782;2022-10-15T08:24:32;23.47;;;17.30;;
9256;SDS011;4665;51.368;6.782;2022-10-15T08:26:58;20.23;;;15.03;;
9256;SDS011;4665;51.368;6.782;2022-10-15T08:29:23;22.53;;;14.80;;
9256;SDS011;4665;51.368;6.782;2022-10-15T08:31:49;17.87;;;13.60;;
9256;SDS011;4665;51.368;6.782;2022-10-15T08:34:15;14.10;;;11.83;;
9256;SDS011;4665;51.368;6.782;2022-10-15T08:36:40;14.40;;;12.33;;
9256;SDS011;4665;51.368;6.782;2022-10-15T08:39:05;12.43;;;11.03;;
9256;SDS011;4665;51.368;6.782;2022-10-15T08:41:37;11.83;;;10.67;;
9256;SDS011;4665;51.368;6.782;2022-10-15T08:46:51;12.13;;;9.73;;
9256;SDS011;4665;51.368;6.782;2022-10-15T08:52:07;9.70;;;8.77;;
9256;SDS011;4665;51.368;6.782;2022-10-15T08:54:42;9.57;;;8.57;;
9256;SDS011;4665;51.368;6.782;2022-10-15T08:57:10;9.10;;;8.10;;
9256;SDS011;4665;51.368;6.782;2022-10-15T08:59:48;11.00;;;10.00;;
9256;SDS011;4665;51.368;6.782;2022-10-15T09:02:26;7.83;;;7.03;;
9256;SDS011;4665;51.368;6.782;2022-10-15T09:05:00;7.83;;;7.03;;
9256;SDS011;4665;51.368;6.782;2022-10-15T09:10:35;8.30;;;6.20;;
9256;SDS011;4665;51.368;6.782;2022-10-15T09:13:15;6.07;;;5.47;;
9256;SDS011;4665;51.368;6.782;2022-10-15T09:15:53;5.93;;;5.30;;
9256;SDS011;4665;51.368;6.782;2022-10-15T09:18:24;4.50;;;4.10;;
9256;SDS011;4665;51.368;6.782;2022-10-15T09:20:53;4.63;;;4.33;;
9256;SDS011;4665;51.368;6.782;2022-10-15T09:23:22;3.87;;;3.57;;
9256;SDS011;4665;51.368;6.782;2022-10-15T09:25:54;3.20;;;2.97;;
9256;SDS011;4665;51.368;6.782;2022-10-15T09:28:29;4.50;;;3.17;;
9256;SDS011;4665;51.368;6.782;2022-10-15T09:31:03;2.60;;;2.50;;
9256;SDS011;4665;51.368;6.782;2022-10-15T09:33:40;2.53;;;2.33;;
9256;SDS011;4665;51.368;6.782;2022-10-15T09:38:46;2.43;;;2.20;;
9256;SDS011;4665;51.368;6.782;2022-10-15T09:41:38;2.10;;;2.00;;
9256;SDS011;4665;51.368;6.782;2022-10-15T09:44:26;1.97;;;1.87;;
9256;SDS011;4665;51.368;6.782;2022-10-15T09:46:57;2.27;;;2.13;;
9256;SDS011;4665;51.368;6.782;2022-10-15T09:49:23;2.10;;;1.90;;
9256;SDS011;4665;51.368;6.782;2022-10-15T09:57:03;1.33;;;1.30;;
9256;SDS011;4665;51.368;6.782;2022-10-15T09:59:33;1.43;;;1.20;;
9256;SDS011;4665;51.368;6.782;2022-10-15T10:04:39;1.23;;;1.20;;
9256;SDS011;4665;51.368;6.782;2022-10-15T10:07:05;1.20;;;1.10;;
9256;SDS011;4665;51.368;6.782;2022-10-15T10:09:32;1.00;;;1.00;;
9256;SDS011;4665;51.368;6.782;2022-10-15T10:12:03;0.83;;;0.83;;
9256;SDS011;4665;51.368;6.782;2022-10-15T10:14:41;1.73;;;1.03;;
9256;SDS011;4665;51.368;6.782;2022-10-15T10:17:18;1.30;;;1.30;;
9256;SDS011;4665;51.368;6.782;2022-10-15T10:19:45;0.83;;;0.83;;
9256;SDS011;4665;51.368;6.782;2022-10-15T10:22:28;1.13;;;1.13;;
9256;SDS011;4665;51.368;6.782;2022-10-15T10:24:54;1.80;;;1.23;;
9256;SDS011;4665;51.368;6.782;2022-10-15T10:27:21;2.10;;;1.40;;
9256;SDS011;4665;51.368;6.782;2022-10-15T10:29:53;1.03;;;1.03;;
9256;SDS011;4665;51.368;6.782;2022-10-15T10:32:30;4.07;;;1.40;;
9256;SDS011;4665;51.368;6.782;2022-10-15T10:34:58;1.87;;;1.30;;
9256;SDS011;4665;51.368;6.782;2022-10-15T10:37:26;1.80;;;1.67;;
9256;SDS011;4665;51.368;6.782;2022-10-15T10:39:54;2.43;;;1.50;;
9256;SDS011;4665;51.368;6.782;2022-10-15T10:42:23;1.60;;;1.50;;
9256;SDS011;4665;51.368;6.782;2022-10-15T10:44:50;1.73;;;1.63;;
9256;SDS011;4665;51.368;6.782;2022-10-15T10:47:18;1.30;;;1.30;;
9256;SDS011;4665;51.368;6.782;2022-10-15T10:49:53;3.07;;;1.43;;
9256;SDS011;4665;51.368;6.782;2022-10-15T10:52:22;1.87;;;1.60;;
9256;SDS011;4665;51.368;6.782;2022-10-15T10:57:38;2.00;;;1.90;;
9256;SDS011;4665;51.368;6.782;2022-10-15T11:00:07;2.00;;;1.90;;
9256;SDS011;4665;51.368;6.782;2022-10-15T11:02:48;2.00;;;1.90;;
9256;SDS011;4665;51.368;6.782;2022-10-15T11:05:18;1.53;;;1.53;;
9256;SDS011;4665;51.368;6.782;2022-10-15T11:10:25;1.70;;;1.70;;
9256;SDS011;4665;51.368;6.782;2022-10-15T11:29:28;1.90;;;1.80;;
9256;SDS011;4665;51.368;6.782;2022-10-15T11:32:00;4.83;;;1.60;;
9256;SDS011;4665;51.368;6.782;2022-10-15T11:37:34;1.73;;;1.63;;
9256;SDS011;4665;51.368;6.782;2022-10-15T11:40:12;1.87;;;1.77;;
9256;SDS011;4665;51.368;6.782;2022-10-15T11:42:48;1.80;;;1.70;;
9256;SDS011;4665;51.368;6.782;2022-10-15T11:51:02;2.00;;;1.90;;
9256;SDS011;4665;51.368;6.782;2022-10-15T11:56:13;2.53;;;2.03;;
9256;SDS011;4665;51.368;6.782;2022-10-15T11:58:48;1.77;;;1.70;;
9256;SDS011;4665;51.368;6.782;2022-10-15T12:03:51;2.00;;;1.90;;
9256;SDS011;4665;51.368;6.782;2022-10-15T12:06:21;2.50;;;1.90;;
9256;SDS011;4665;51.368;6.782;2022-10-15T12:08:52;1.60;;;1.50;;
9256;SDS011;4665;51.368;6.782;2022-10-15T12:11:29;1.90;;;1.80;;
9256;SDS011;4665;51.368;6.782;2022-10-15T12:14:21;2.37;;;1.60;;
9256;SDS011;4665;51.368;6.782;2022-10-15T12:16:57;1.67;;;1.57;;
9256;SDS011;4665;51.368;6.782;2022-10-15T12:19:27;1.60;;;1.50;;
9256;SDS011;4665;51.368;6.782;2022-10-15T12:22:02;3.57;;;2.00;;
9256;SDS011;4665;51.368;6.782;2022-10-15T12:29:43;2.00;;;1.90;;
9256;SDS011;4665;51.368;6.782;2022-10-15T12:32:25;2.27;;;1.67;;
9256;SDS011;4665;51.368;6.782;2022-10-15T12:34:53;1.47;;;1.47;;
9256;SDS011;4665;51.368;6.782;2022-10-15T12:37:21;1.87;;;1.77;;
9256;SDS011;4665;51.368;6.782;2022-10-15T12:39:53;1.63;;;1.53;;
9256;SDS011;4665;51.368;6.782;2022-10-15T12:44:53;1.67;;;1.57;;
9256;SDS011;4665;51.368;6.782;2022-10-15T12:47:44;1.67;;;1.57;;
9256;SDS011;4665;51.368;6.782;2022-10-15T12:50:25;1.83;;;1.53;;
9256;SDS011;4665;51.368;6.782;2022-10-15T12:55:34;3.03;;;1.80;;
9256;SDS011;4665;51.368;6.782;2022-10-15T13:02:55;2.47;;;1.77;;
9256;SDS011;4665;51.368;6.782;2022-10-15T13:07:57;1.77;;;1.67;;
9256;SDS011;4665;51.368;6.782;2022-10-15T13:10:28;1.73;;;1.63;;
9256;SDS011;4665;51.368;6.782;2022-10-15T13:13:05;1.53;;;1.50;;
9256;SDS011;4665;51.368;6.782;2022-10-15T13:15:36;2.80;;;1.70;;
9256;SDS011;4665;51.368;6.782;2022-10-15T13:18:10;1.63;;;1.53;;
9256;SDS011;4665;51.368;6.782;2022-10-15T13:20:41;1.43;;;1.33;;
9256;SDS011;4665;51.368;6.782;2022-10-15T13:23:16;1.30;;;1.30;;
9256;SDS011;4665;51.368;6.782;2022-10-15T13:25:45;1.40;;;1.30;;
9256;SDS011;4665;51.368;6.782;2022-10-15T13:28:27;2.83;;;1.60;;
9256;SDS011;4665;51.368;6.782;2022-10-15T13:30:58;1.40;;;1.17;;
9256;SDS011;4665;51.368;6.782;2022-10-15T13:33:26;1.00;;;1.00;;
9256;SDS011;4665;51.368;6.782;2022-10-15T13:35:52;0.97;;;0.97;;
9256;SDS011;4665;51.368;6.782;2022-10-15T13:38:19;1.17;;;1.17;;
9256;SDS011;4665;51.368;6.782;2022-10-15T13:40:47;1.00;;;1.00;;
9256;SDS011;4665;51.368;6.782;2022-10-15T13:43:16;0.80;;;0.80;;
9256;SDS011;4665;51.368;6.782;2022-10-15T13:45:45;0.90;;;0.90;;
9256;SDS011;4665;51.368;6.782;2022-10-15T13:48:18;0.80;;;0.80;;
9256;SDS011;4665;51.368;6.782;2022-10-15T13:50:47;0.90;;;0.90;;
9256;SDS011;4665;51.368;6.782;2022-10-15T13:55:59;0.90;;;0.90;;
9256;SDS011;4665;51.368;6.782;2022-10-15T13:58:30;0.60;;;0.60;;
9256;SDS011;4665;51.368;6.782;2022-10-15T14:03:54;0.77;;;0.70;;
9256;SDS011;4665;51.368;6.782;2022-10-15T14:06:25;0.73;;;0.73;;
9256;SDS011;4665;51.368;6.782;2022-10-15T14:08:59;0.83;;;0.70;;
9256;SDS011;4665;51.368;6.782;2022-10-15T14:11:25;0.60;;;0.60;;
9256;SDS011;4665;51.368;6.782;2022-10-15T14:13:53;1.27;;;0.60;;
9256;SDS011;4665;51.368;6.782;2022-10-15T14:21:28;0.67;;;0.50;;
9256;SDS011;4665;51.368;6.782;2022-10-15T14:26:30;0.80;;;0.80;;
9256;SDS011;4665;51.368;6.782;2022-10-15T14:28:57;1.47;;;0.80;;
9256;SDS011;4665;51.368;6.782;2022-10-15T14:31:44;1.33;;;1.20;;
9256;SDS011;4665;51.368;6.782;2022-10-15T14:36:58;2.80;;;1.43;;
9256;SDS011;4665;51.368;6.782;2022-10-15T14:42:00;2.27;;;1.10;;
9256;SDS011;4665;51.368;6.782;2022-10-15T14:44:40;1.43;;;1.20;;
9256;SDS011;4665;51.368;6.782;2022-10-15T14:49:42;1.73;;;1.43;;
9256;SDS011;4665;51.368;6.782;2022-10-15T14:52:10;1.53;;;1.43;;
9256;SDS011;4665;51.368;6.782;2022-10-15T14:54:41;2.57;;;1.50;;
9256;SDS011;4665;51.368;6.782;2022-10-15T14:57:15;1.90;;;1.50;;
9256;SDS011;4665;51.368;6.782;2022-10-15T14:59:46;2.20;;;1.53;;
9256;SDS011;4665;51.368;6.782;2022-10-15T15:02:13;1.50;;;1.47;;
9256;SDS011;4665;51.368;6.782;2022-10-15T15:04:41;2.07;;;1.33;;
9256;SDS011;4665;51.368;6.782;2022-10-15T15:07:13;2.00;;;1.50;;
9256;SDS011;4665;51.368;6.782;2022-10-15T15:09:40;2.20;;;1.70;;
9256;SDS011;4665;51.368;6.782;2022-10-15T15:12:09;1.50;;;1.40;;
9256;SDS011;4665;51.368;6.782;2022-10-15T15:14:39;1.50;;;1.40;;
9256;SDS011;4665;51.368;6.782;2022-10-15T15:17:04;1.30;;;1.30;;
9256;SDS011;4665;51.368;6.782;2022-10-15T15:19:30;2.70;;;1.50;;
9256;SDS011;4665;51.368;6.782;2022-10-15T15:21:55;1.40;;;1.33;;
9256;SDS011;4665;51.368;6.782;2022-10-15T15:24:20;1.70;;;1.40;;
9256;SDS011;4665;51.368;6.782;2022-10-15T15:26:46;3.87;;;1.53;;
9256;SDS011;4665;51.368;6.782;2022-10-15T15:29:11;1.73;;;1.63;;
9256;SDS011;4665;51.368;6.782;2022-10-15T15:31:39;1.53;;;1.43;;
9256;SDS011;4665;51.368;6.782;2022-10-15T15:34:05;1.30;;;1.30;;
9256;SDS011;4665;51.368;6.782;2022-10-15T15:36:30;1.77;;;1.60;;
9256;SDS011;4665;51.368;6.782;2022-10-15T15:38:56;1.70;;;1.60;;
9256;SDS011;4665;51.368;6.782;2022-10-15T15:41:23;4.37;;;1.47;;
9256;SDS011;4665;51.368;6.782;2022-10-15T15:43:49;1.47;;;1.47;;
9256;SDS011;4665;51.368;6.782;2022-10-15T15:46:15;1.73;;;1.63;;
9256;SDS011;4665;51.368;6.782;2022-10-15T15:48:41;1.70;;;1.60;;
9256;SDS011;4665;51.368;6.782;2022-10-15T15:53:46;1.80;;;1.70;;
9256;SDS011;4665;51.368;6.782;2022-10-15T15:56:12;1.83;;;1.70;;
9256;SDS011;4665;51.368;6.782;2022-10-15T15:58:38;1.70;;;1.60;;
9256;SDS011;4665;51.368;6.782;2022-10-15T16:01:03;2.13;;;2.03;;
9256;SDS011;4665;51.368;6.782;2022-10-15T16:03:29;1.90;;;1.80;;
9256;SDS011;4665;51.368;6.782;2022-10-15T16:05:54;2.00;;;1.90;;
9256;SDS011;4665;51.368;6.782;2022-10-15T16:08:19;2.00;;;1.90;;
9256;SDS011;4665;51.368;6.782;2022-10-15T16:10:45;1.90;;;1.80;;
9256;SDS011;4665;51.368;6.782;2022-10-15T16:13:10;1.60;;;1.60;;
9256;SDS011;4665;51.368;6.782;2022-10-15T16:15:36;2.10;;;2.00;;
9256;SDS011;4665;51.368;6.782;2022-10-15T16:18:01;2.00;;;1.90;;
9256;SDS011;4665;51.368;6.782;2022-10-15T16:20:26;2.97;;;2.20;;
9256;SDS011;4665;51.368;6.782;2022-10-15T16:22:52;2.60;;;2.40;;
9256;SDS011;4665;51.368;6.782;2022-10-15T16:25:19;2.60;;;2.40;;
9256;SDS011;4665;51.368;6.782;2022-10-15T16:27:45;3.93;;;2.70;;
9256;SDS011;4665;51.368;6.782;2022-10-15T16:30:15;2.90;;;2.70;;
9256;SDS011;4665;51.368;6.782;2022-10-15T16:32:42;3.67;;;3.00;;
9256;SDS011;4665;51.368;6.782;2022-10-15T16:35:07;3.20;;;3.00;;
9256;SDS011;4665;51.368;6.782;2022-10-15T16:37:33;3.10;;;2.90;;
9256;SDS011;4665;51.368;6.782;2022-10-15T16:39:58;3.00;;;2.90;;
9256;SDS011;4665;51.368;6.782;2022-10-15T16:42:24;2.80;;;2.60;;
9256;SDS011;4665;51.368;6.782;2022-10-15T16:44:49;2.60;;;2.40;;
9256;SDS011;4665;51.368;6.782;2022-10-15T16:47:16;2.60;;;2.40;;
9256;SDS011;4665;51.368;6.782;2022-10-15T16:49:42;2.20;;;2.10;;
9256;SDS011;4665;51.368;6.782;2022-10-15T16:52:07;2.63;;;2.40;;
9256;SDS011;4665;51.368;6.782;2022-10-15T16:54:33;3.27;;;2.77;;
9256;SDS011;4665;51.368;6.782;2022-10-15T16:56:58;3.00;;;2.80;;
9256;SDS011;4665;51.368;6.782;2022-10-15T16:59:24;1.93;;;1.83;;
9256;SDS011;4665;51.368;6.782;2022-10-15T17:01:49;1.63;;;1.63;;
9256;SDS011;4665;51.368;6.782;2022-10-15T17:04:15;2.20;;;1.70;;
9256;SDS011;4665;51.368;6.782;2022-10-15T17:06:40;1.90;;;1.80;;
9256;SDS011;4665;51.368;6.782;2022-10-15T17:09:06;1.57;;;1.57;;
9256;SDS011;4665;51.368;6.782;2022-10-15T17:11:35;2.40;;;2.30;;